createdAt,value
2023-05-06T00:01:45.210Z,13.69
2023-05-06T00:04:12.686Z,13.93
2023-05-06T00:06:41.660Z,13.90
2023-05-06T00:09:09.613Z,13.94
2023-05-06T00:11:37.215Z,13.77
2023-05-06T00:14:04.741Z,13.57
2023-05-06T00:16:33.661Z,13.91
2023-05-06T00:19:01.357Z,13.96
2023-05-06T00:21:28.838Z,13.61
2023-05-06T00:23:56.410Z,13.86
2023-05-06T00:26:23.945Z,13.69
2023-05-06T00:28:51.431Z,13.65
2023-05-06T00:31:18.969Z,13.74
2023-05-06T00:33:47.776Z,13.74
2023-05-06T00:36:15.326Z,13.70
2023-05-06T00:38:42.778Z,13.81
2023-05-06T00:41:10.254Z,13.39
2023-05-06T00:43:37.749Z,13.87
2023-05-06T00:46:12.122Z,13.67
2023-05-06T00:48:40.588Z,13.66
2023-05-06T00:51:09.441Z,13.87
2023-05-06T00:53:37.068Z,13.64
2023-05-06T00:56:04.935Z,13.78
2023-05-06T00:58:32.516Z,13.84
2023-05-06T01:01:01.742Z,13.72
2023-05-06T01:03:29.436Z,13.50
2023-05-06T01:06:08.225Z,13.65
2023-05-06T01:08:45.354Z,13.69
2023-05-06T01:11:15.917Z,13.82
2023-05-06T01:13:48.066Z,13.60
2023-05-06T01:16:18.858Z,13.44
2023-05-06T01:18:49.716Z,13.70
2023-05-06T01:21:19.167Z,13.79
2023-05-06T01:23:57.617Z,13.79
2023-05-06T01:26:25.757Z,13.02
2023-05-06T01:28:53.865Z,13.27
2023-05-06T01:31:27.017Z,13.65
2023-05-06T01:34:06.915Z,13.51
2023-05-06T01:36:39.963Z,13.61
2023-05-06T01:39:17.471Z,13.68
2023-05-06T01:41:48.043Z,13.71
2023-05-06T01:44:16.520Z,13.61
2023-05-06T01:46:46.130Z,13.78
2023-05-06T01:49:15.781Z,13.48
2023-05-06T01:51:48.819Z,13.57
2023-05-06T01:54:17.897Z,13.80
2023-05-06T01:56:45.430Z,13.28
2023-05-06T01:59:13.101Z,13.62
2023-05-06T02:01:40.714Z,13.58
2023-05-06T02:04:08.333Z,13.26
2023-05-06T02:06:35.844Z,13.31
2023-05-06T02:09:03.347Z,13.63
2023-05-06T02:11:32.179Z,13.71
2023-05-06T02:13:59.668Z,13.71
2023-05-06T02:16:28.710Z,13.75
2023-05-06T02:18:56.444Z,13.25
2023-05-06T02:21:24.014Z,13.61
2023-05-06T02:23:51.483Z,13.53
2023-05-06T02:26:18.955Z,13.58
2023-05-06T02:28:47.756Z,13.05
2023-05-06T02:31:16.144Z,13.53
2023-05-06T02:33:44.731Z,13.64
2023-05-06T02:36:12.290Z,13.57
2023-05-06T02:38:39.841Z,13.57
2023-05-06T02:41:07.342Z,13.67
2023-05-06T02:43:34.806Z,13.75
2023-05-06T02:46:03.669Z,13.46
2023-05-06T02:48:31.254Z,13.84
2023-05-06T02:50:58.704Z,13.70
2023-05-06T02:53:26.226Z,13.71
2023-05-06T02:55:53.827Z,13.68
2023-05-06T02:58:21.285Z,13.71
2023-05-06T03:00:48.760Z,13.29
2023-05-06T03:03:18.071Z,13.44
2023-05-06T03:05:45.723Z,13.70
2023-05-06T03:08:13.178Z,13.48
2023-05-06T03:10:40.632Z,13.61
2023-05-06T03:13:08.196Z,13.43
2023-05-06T03:15:35.796Z,13.58
2023-05-06T03:18:03.297Z,13.72
2023-05-06T03:20:32.113Z,13.83
2023-05-06T03:22:59.737Z,13.69
2023-05-06T03:25:27.215Z,13.71
2023-05-06T03:27:54.975Z,13.69
2023-05-06T03:30:22.415Z,13.68
2023-05-06T03:32:49.942Z,13.82
2023-05-06T03:35:17.874Z,13.74
2023-05-06T03:37:46.710Z,13.74
2023-05-06T03:40:14.331Z,13.86
2023-05-06T03:42:41.808Z,13.49
2023-05-06T03:45:10.043Z,13.74
2023-05-06T03:47:38.172Z,13.77
2023-05-06T03:50:06.517Z,13.73
2023-05-06T03:52:34.034Z,13.61
2023-05-06T03:55:03.162Z,13.42
2023-05-06T03:57:30.672Z,13.50
2023-05-06T03:59:58.155Z,13.73
2023-05-06T04:02:25.860Z,13.74
2023-05-06T04:04:53.498Z,13.54
2023-05-06T04:07:20.946Z,13.73
2023-05-06T04:09:48.394Z,13.51
2023-05-06T04:12:17.194Z,13.58
2023-05-06T04:14:44.693Z,13.71
2023-05-06T04:17:12.168Z,13.72
2023-05-06T04:19:39.613Z,13.57
2023-05-06T04:22:07.341Z,13.53
2023-05-06T04:24:34.775Z,13.62
2023-05-06T04:27:04.105Z,13.48
2023-05-06T04:29:32.961Z,13.15
2023-05-06T04:32:00.537Z,13.03
2023-05-06T04:34:28.867Z,12.98
2023-05-06T04:36:56.435Z,13.03
2023-05-06T04:39:24.086Z,13.36
2023-05-06T04:41:51.635Z,13.64
2023-05-06T04:44:19.387Z,13.13
2023-05-06T04:46:48.473Z,13.06
2023-05-06T04:49:15.925Z,12.94
2023-05-06T04:51:43.368Z,13.19
2023-05-06T04:54:11.003Z,13.15
2023-05-06T04:56:38.495Z,13.18
2023-05-06T04:59:05.958Z,13.29
2023-05-06T05:01:33.426Z,13.24
2023-05-06T05:04:02.248Z,13.62
2023-05-06T05:06:29.721Z,14.13
2023-05-06T05:08:57.191Z,13.95
2023-05-06T05:11:24.657Z,13.94
2023-05-06T05:13:53.379Z,13.86
2023-05-06T05:16:21.850Z,14.10
2023-05-06T05:18:49.339Z,13.90
2023-05-06T05:21:18.122Z,14.61
2023-05-06T05:23:45.627Z,14.81
2023-05-06T05:26:13.108Z,14.78
2023-05-06T05:28:40.636Z,14.83
2023-05-06T05:31:10.213Z,15.00
2023-05-06T05:33:38.094Z,15.30
2023-05-06T05:36:06.061Z,15.04
2023-05-06T05:38:34.917Z,14.55
2023-05-06T05:41:02.595Z,14.28
2023-05-06T05:43:31.384Z,14.32
2023-05-06T05:45:59.024Z,14.78
2023-05-06T05:48:26.499Z,14.28
2023-05-06T05:50:54.141Z,14.24
2023-05-06T05:53:21.574Z,13.96
2023-05-06T05:55:52.370Z,14.10
2023-05-06T05:58:20.276Z,14.52
2023-05-06T06:00:47.863Z,14.16
2023-05-06T06:03:15.452Z,13.98
2023-05-06T06:05:43.157Z,13.86
2023-05-06T06:08:10.782Z,14.00
2023-05-06T06:10:38.238Z,13.82
2023-05-06T06:13:07.102Z,13.72
2023-05-06T06:15:34.793Z,13.80
2023-05-06T06:18:02.622Z,14.09
2023-05-06T06:20:30.113Z,14.09
2023-05-06T06:22:57.583Z,14.04
2023-05-06T06:25:25.023Z,14.15
2023-05-06T06:27:52.475Z,13.82
2023-05-06T06:30:21.320Z,14.22
2023-05-06T06:32:50.086Z,14.15
2023-05-06T06:35:19.006Z,13.88
2023-05-06T06:37:46.913Z,13.92
2023-05-06T06:40:15.034Z,13.94
2023-05-06T06:42:42.484Z,13.71
2023-05-06T06:45:10.925Z,14.02
2023-05-06T06:47:40.002Z,13.93
2023-05-06T06:50:09.106Z,13.84
2023-05-06T06:52:36.895Z,14.32
2023-05-06T06:55:05.070Z,13.99
2023-05-06T06:57:32.571Z,14.15
2023-05-06T07:00:00.087Z,13.98
2023-05-06T07:02:27.621Z,13.91
2023-05-06T07:04:56.414Z,13.91
2023-05-06T07:07:23.897Z,13.88
2023-05-06T07:09:51.347Z,13.84
2023-05-06T07:12:18.801Z,13.90
2023-05-06T07:14:46.376Z,14.22
2023-05-06T07:17:14.295Z,13.99
2023-05-06T07:19:41.772Z,14.33
2023-05-06T07:22:10.588Z,14.32
2023-05-06T07:24:38.118Z,14.57
2023-05-06T07:27:05.767Z,14.54
2023-05-06T07:29:34.787Z,14.62
2023-05-06T07:32:02.291Z,14.88
2023-05-06T07:34:29.786Z,14.88
2023-05-06T07:36:57.224Z,14.46
2023-05-06T07:39:26.259Z,14.68
2023-05-06T07:41:53.847Z,15.14
2023-05-06T07:44:21.333Z,15.03
2023-05-06T07:46:49.114Z,15.00
2023-05-06T07:49:16.590Z,15.15
2023-05-06T07:51:45.643Z,15.56
2023-05-06T07:54:13.336Z,15.59
2023-05-06T07:56:42.225Z,15.38
2023-05-06T07:59:09.738Z,15.87
2023-05-06T08:01:37.397Z,15.84
2023-05-06T08:04:05.133Z,15.43
2023-05-06T08:06:33.016Z,15.38
2023-05-06T08:09:00.662Z,15.90
2023-05-06T08:11:28.130Z,15.74
2023-05-06T08:13:56.914Z,15.63
2023-05-06T08:16:25.481Z,15.86
2023-05-06T08:18:53.243Z,16.17
2023-05-06T08:21:20.687Z,15.87
2023-05-06T08:23:48.215Z,15.63
2023-05-06T08:26:15.741Z,15.63
2023-05-06T08:28:43.208Z,15.82
2023-05-06T08:31:12.103Z,16.11
2023-05-06T08:33:39.562Z,15.79
2023-05-06T08:36:07.488Z,15.92
2023-05-06T08:38:34.937Z,15.69
2023-05-06T08:41:08.834Z,16.14
2023-05-06T08:43:41.820Z,16.25
2023-05-06T08:46:09.676Z,16.36
2023-05-06T08:48:38.590Z,16.31
2023-05-06T08:51:06.932Z,16.51
2023-05-06T08:53:34.831Z,16.87
2023-05-06T08:56:04.985Z,16.35
2023-05-06T08:58:34.849Z,16.75
2023-05-06T09:01:04.120Z,16.49
2023-05-06T09:03:32.038Z,16.57
2023-05-06T09:06:00.932Z,16.47
2023-05-06T09:08:28.391Z,16.43
2023-05-06T09:10:55.930Z,16.24
2023-05-06T09:13:23.454Z,16.19
2023-05-06T09:15:55.139Z,16.12
2023-05-06T09:18:23.746Z,16.12
2023-05-06T09:20:51.449Z,16.16
2023-05-06T09:23:23.586Z,16.57
2023-05-06T09:25:51.267Z,16.53
2023-05-06T09:28:18.734Z,16.69
2023-05-06T09:30:47.470Z,16.77
2023-05-06T09:33:15.187Z,16.52
2023-05-06T09:35:44.379Z,16.72
2023-05-06T09:38:11.977Z,16.94
2023-05-06T09:40:40.842Z,16.74
2023-05-06T09:43:09.888Z,16.73
2023-05-06T09:45:37.675Z,16.55
2023-05-06T09:48:05.533Z,16.92
2023-05-06T09:50:33.707Z,17.06
2023-05-06T09:53:03.548Z,17.42
2023-05-06T09:55:31.498Z,16.80
2023-05-06T09:58:01.547Z,16.67
2023-05-06T10:00:31.367Z,17.13
2023-05-06T10:03:00.097Z,17.18
2023-05-06T10:05:29.687Z,17.55
2023-05-06T10:07:58.169Z,17.69
2023-05-06T10:10:28.098Z,17.95
2023-05-06T10:12:56.350Z,18.01
2023-05-06T10:15:26.945Z,18.01
2023-05-06T10:17:55.231Z,17.30
2023-05-06T10:20:25.699Z,17.59
2023-05-06T10:23:02.078Z,17.75
2023-05-06T10:25:36.668Z,18.06
2023-05-06T10:28:08.026Z,17.98
2023-05-06T10:30:41.263Z,17.57
2023-05-06T10:33:11.242Z,17.15
2023-05-06T10:35:45.944Z,17.13
2023-05-06T10:38:18.964Z,17.15
2023-05-06T10:40:47.601Z,17.47
2023-05-06T10:43:25.529Z,18.05
2023-05-06T10:46:06.962Z,17.80
2023-05-06T10:48:34.856Z,17.58
2023-05-06T10:51:28.187Z,17.37
2023-05-06T10:54:02.247Z,17.20
2023-05-06T10:56:31.441Z,17.00
2023-05-06T10:59:04.011Z,17.23
2023-05-06T11:01:32.889Z,17.07
2023-05-06T11:04:05.768Z,17.28
2023-05-06T11:06:34.828Z,17.36
2023-05-06T11:09:04.008Z,17.53
2023-05-06T11:11:51.994Z,17.88
2023-05-06T11:14:28.142Z,18.13
2023-05-06T11:16:58.245Z,17.94
2023-05-06T11:19:27.014Z,17.77
2023-05-06T11:21:57.631Z,17.61
2023-05-06T11:24:27.480Z,17.47
2023-05-06T11:26:55.546Z,17.52
2023-05-06T11:29:23.924Z,17.36
2023-05-06T11:31:52.868Z,17.43
2023-05-06T11:34:25.060Z,17.58
2023-05-06T11:37:00.586Z,18.33
2023-05-06T11:39:30.611Z,18.27
2023-05-06T11:42:03.765Z,18.84
2023-05-06T11:44:33.007Z,18.87
2023-05-06T11:47:02.023Z,18.83
2023-05-06T11:49:31.005Z,18.68
2023-05-06T11:51:58.488Z,18.45
2023-05-06T11:54:27.680Z,18.45
2023-05-06T11:56:57.445Z,18.10
2023-05-06T11:59:30.413Z,18.22
2023-05-06T12:01:59.738Z,17.89
2023-05-06T12:04:27.447Z,17.71
2023-05-06T12:06:57.152Z,17.65
2023-05-06T12:09:25.449Z,17.47
2023-05-06T12:11:53.531Z,17.47
2023-05-06T12:14:21.249Z,17.98
2023-05-06T12:16:48.900Z,19.02
2023-05-06T12:19:19.387Z,18.92
2023-05-06T12:21:47.245Z,19.38
2023-05-06T12:24:16.565Z,19.22
2023-05-06T12:26:46.110Z,19.45
2023-05-06T12:29:17.600Z,19.44
2023-05-06T12:31:47.075Z,19.63
2023-05-06T12:34:16.030Z,19.33
2023-05-06T12:36:45.572Z,19.50
2023-05-06T12:39:14.425Z,19.15
2023-05-06T12:41:44.959Z,18.76
2023-05-06T12:44:32.145Z,18.52
2023-05-06T12:47:00.547Z,18.43
2023-05-06T12:49:28.203Z,18.53
2023-05-06T12:52:09.472Z,18.61
2023-05-06T12:54:37.377Z,18.83
2023-05-06T12:57:06.684Z,19.23
2023-05-06T12:59:35.714Z,19.64
2023-05-06T13:02:03.346Z,19.92
2023-05-06T13:04:30.989Z,19.52
2023-05-06T13:06:58.778Z,19.99
2023-05-06T13:09:26.800Z,19.27
2023-05-06T13:11:55.082Z,18.89
2023-05-06T13:14:23.967Z,18.71
2023-05-06T13:16:51.584Z,18.53
2023-05-06T13:19:31.584Z,18.45
2023-05-06T13:22:00.387Z,18.50
2023-05-06T13:24:28.130Z,18.70
2023-05-06T13:26:56.267Z,18.79
2023-05-06T13:29:25.370Z,18.68
2023-05-06T13:31:53.721Z,18.61
2023-05-06T13:34:21.241Z,18.61
2023-05-06T13:36:49.554Z,18.65
2023-05-06T13:39:17.453Z,18.76
2023-05-06T13:41:47.403Z,18.78
2023-05-06T13:44:14.892Z,18.83
2023-05-06T13:46:45.622Z,18.67
2023-05-06T13:49:14.861Z,18.67
2023-05-06T13:51:42.338Z,18.57
2023-05-06T13:54:10.078Z,18.66
2023-05-06T13:56:37.713Z,18.92
2023-05-06T13:59:05.276Z,18.78
2023-05-06T14:01:32.941Z,18.99
2023-05-06T14:04:01.782Z,19.11
2023-05-06T14:06:29.297Z,19.02
2023-05-06T14:08:56.834Z,19.16
2023-05-06T14:11:24.473Z,19.49
2023-05-06T14:13:51.925Z,19.35
2023-05-06T14:16:19.469Z,19.20
2023-05-06T14:18:46.923Z,19.31
2023-05-06T14:21:15.750Z,19.34
2023-05-06T14:23:43.231Z,19.31
2023-05-06T14:26:10.878Z,19.19
2023-05-06T14:28:38.330Z,19.34
2023-05-06T14:31:06.178Z,19.49
2023-05-06T14:33:33.773Z,19.51
2023-05-06T14:36:03.281Z,19.66
2023-05-06T14:38:32.246Z,19.38
2023-05-06T14:40:59.981Z,19.49
2023-05-06T14:43:27.453Z,19.44
2023-05-06T14:45:54.979Z,19.51
2023-05-06T14:48:22.567Z,19.64
2023-05-06T14:50:49.983Z,19.62
2023-05-06T14:53:17.447Z,19.99
2023-05-06T14:55:46.289Z,20.10
2023-05-06T14:58:13.744Z,19.98
2023-05-06T15:00:41.317Z,19.68
2023-05-06T15:03:08.849Z,19.62
2023-05-06T15:05:37.077Z,19.88
2023-05-06T15:08:04.710Z,20.22
2023-05-06T15:10:32.263Z,19.96
2023-05-06T15:13:01.161Z,20.03
2023-05-06T15:15:28.851Z,20.10
2023-05-06T15:17:56.463Z,19.76
2023-05-06T15:20:24.129Z,19.74
2023-05-06T15:22:51.626Z,19.53
2023-05-06T15:25:33.348Z,19.39
2023-05-06T15:28:03.694Z,19.75
2023-05-06T15:30:31.259Z,19.64
2023-05-06T15:32:58.812Z,19.46
2023-05-06T15:35:27.095Z,19.53
2023-05-06T15:37:58.339Z,19.61
2023-05-06T15:40:26.396Z,19.54
2023-05-06T15:42:53.761Z,19.40
2023-05-06T15:45:23.542Z,19.54
2023-05-06T15:47:51.170Z,19.43
2023-05-06T15:50:32.420Z,19.37
2023-05-06T15:53:01.176Z,19.47
2023-05-06T15:55:28.828Z,19.61
2023-05-06T15:58:00.436Z,19.56
2023-05-06T16:00:29.642Z,19.37
2023-05-06T16:02:57.244Z,19.45
2023-05-06T16:05:24.896Z,19.41
2023-05-06T16:07:52.341Z,19.51
2023-05-06T16:10:19.787Z,19.47
2023-05-06T16:12:47.344Z,19.23
2023-05-06T16:15:14.873Z,19.47
2023-05-06T16:17:43.786Z,19.33
2023-05-06T16:20:12.751Z,19.28
2023-05-06T16:22:40.828Z,19.05
2023-05-06T16:25:08.899Z,18.99
2023-05-06T16:27:36.219Z,19.04
2023-05-06T16:30:03.884Z,19.12
2023-05-06T16:32:31.577Z,19.27
2023-05-06T16:35:00.648Z,19.35
2023-05-06T16:37:29.029Z,19.42
2023-05-06T16:39:56.677Z,19.42
2023-05-06T16:42:24.177Z,19.40
2023-05-06T16:44:52.141Z,19.14
2023-05-06T16:47:23.145Z,19.14
2023-05-06T16:49:50.859Z,19.02
2023-05-06T16:52:20.156Z,19.03
2023-05-06T16:54:47.777Z,19.10
2023-05-06T16:57:15.371Z,19.30
2023-05-06T16:59:42.822Z,19.18
2023-05-06T17:02:10.447Z,19.02
2023-05-06T17:04:38.056Z,18.91
2023-05-06T17:07:05.618Z,19.01
2023-05-06T17:09:34.495Z,19.25
2023-05-06T17:12:02.362Z,19.16
2023-05-06T17:14:29.796Z,19.02
2023-05-06T17:16:58.826Z,18.90
2023-05-06T17:19:26.540Z,18.81
2023-05-06T17:21:54.015Z,18.77
2023-05-06T17:24:21.643Z,18.71
2023-05-06T17:26:50.443Z,18.68
2023-05-06T17:29:18.002Z,18.64
2023-05-06T17:31:45.470Z,18.62
2023-05-06T17:34:12.905Z,18.50
2023-05-06T17:36:40.395Z,18.49
2023-05-06T17:39:09.425Z,18.40
2023-05-06T17:41:37.119Z,18.30
2023-05-06T17:44:06.751Z,18.23
2023-05-06T17:46:34.317Z,18.20
2023-05-06T17:49:01.986Z,18.08
2023-05-06T17:51:29.421Z,18.06
2023-05-06T17:53:58.154Z,18.05
2023-05-06T17:56:26.117Z,17.94
2023-05-06T17:58:53.577Z,17.95
2023-05-06T18:01:22.511Z,17.93
2023-05-06T18:03:50.156Z,17.84
2023-05-06T18:06:18.530Z,17.70
2023-05-06T18:08:46.136Z,17.67
2023-05-06T18:11:13.650Z,17.67
2023-05-06T18:13:41.149Z,17.64
2023-05-06T18:16:08.849Z,17.58
2023-05-06T18:18:37.647Z,17.48
2023-05-06T18:21:05.152Z,17.41
2023-05-06T18:23:33.119Z,17.34
2023-05-06T18:26:00.703Z,17.27
2023-05-06T18:28:28.155Z,17.20
2023-05-06T18:30:55.602Z,17.09
2023-05-06T18:33:23.150Z,17.02
2023-05-06T18:35:51.984Z,16.95
2023-05-06T18:38:19.457Z,16.89
2023-05-06T18:40:48.122Z,16.76
2023-05-06T18:43:15.594Z,16.69
2023-05-06T18:45:43.151Z,16.66
2023-05-06T18:48:11.531Z,16.61
2023-05-06T18:50:39.324Z,16.59
2023-05-06T18:53:08.122Z,16.37
2023-05-06T18:55:35.597Z,16.32
2023-05-06T18:58:05.504Z,16.35
2023-05-06T19:00:33.137Z,16.41
2023-05-06T19:03:00.808Z,16.37
2023-05-06T19:05:28.319Z,16.37
2023-05-06T19:07:55.817Z,16.32
2023-05-06T19:10:24.705Z,16.33
2023-05-06T19:12:52.227Z,16.36
2023-05-06T19:15:19.821Z,16.30
2023-05-06T19:17:47.412Z,16.27
2023-05-06T19:20:15.255Z,16.29
2023-05-06T19:22:43.156Z,16.22
2023-05-06T19:25:11.377Z,16.25
2023-05-06T19:27:40.396Z,16.24
2023-05-06T19:30:08.922Z,16.22
2023-05-06T19:32:36.485Z,16.21
2023-05-06T19:35:07.916Z,16.19
2023-05-06T19:37:36.484Z,16.22
2023-05-06T19:40:05.082Z,16.21
2023-05-06T19:42:33.626Z,16.16
2023-05-06T19:45:07.410Z,16.12
2023-05-06T19:47:35.036Z,16.14
2023-05-06T19:50:03.236Z,16.15
2023-05-06T19:52:31.461Z,16.10
2023-05-06T19:55:00.162Z,16.06
2023-05-06T19:57:27.698Z,16.04
2023-05-06T19:59:56.557Z,15.98
2023-05-06T20:02:26.635Z,16.05
2023-05-06T20:04:54.233Z,15.95
2023-05-06T20:07:22.988Z,15.87
2023-05-06T20:09:55.087Z,15.94
2023-05-06T20:12:22.893Z,15.94
2023-05-06T20:14:50.529Z,15.95
2023-05-06T20:17:18.022Z,15.88
2023-05-06T20:19:46.926Z,15.87
2023-05-06T20:22:14.699Z,15.93
2023-05-06T20:24:43.174Z,15.88
2023-05-06T20:27:10.760Z,15.90
2023-05-06T20:29:38.253Z,15.88
2023-05-06T20:32:06.321Z,15.93
2023-05-06T20:34:33.874Z,15.47
2023-05-06T20:37:03.727Z,15.54
2023-05-06T20:39:31.314Z,15.70
2023-05-06T20:41:58.863Z,15.66
2023-05-06T20:44:26.393Z,15.75
2023-05-06T20:46:53.908Z,15.68
2023-05-06T20:49:21.368Z,15.68
2023-05-06T20:51:48.820Z,15.61
2023-05-06T20:54:17.966Z,15.60
2023-05-06T20:56:45.418Z,15.41
2023-05-06T20:59:12.895Z,15.38
2023-05-06T21:01:40.498Z,15.34
2023-05-06T21:04:07.940Z,15.30
2023-05-06T21:06:35.414Z,15.25
2023-05-06T21:09:02.967Z,15.07
2023-05-06T21:11:31.796Z,15.13
2023-05-06T21:13:59.239Z,15.05
2023-05-06T21:16:26.670Z,15.01
2023-05-06T21:18:54.221Z,15.03
2023-05-06T21:21:23.993Z,14.90
2023-05-06T21:23:51.526Z,14.84
2023-05-06T21:26:19.014Z,14.84
2023-05-06T21:28:51.806Z,14.81
2023-05-06T21:31:20.545Z,14.72
2023-05-06T21:33:48.088Z,14.63
2023-05-06T21:36:15.744Z,14.65
2023-05-06T21:38:43.159Z,14.58
2023-05-06T21:41:10.641Z,14.52
2023-05-06T21:43:38.202Z,14.42
2023-05-06T21:46:07.148Z,14.39
2023-05-06T21:48:34.647Z,14.49
2023-05-06T21:51:04.089Z,14.50
2023-05-06T21:53:31.788Z,14.02
2023-05-06T21:55:59.222Z,14.00
2023-05-06T21:58:26.681Z,14.31
2023-05-06T22:00:54.243Z,14.39
2023-05-06T22:03:23.168Z,14.27
2023-05-06T22:05:50.771Z,14.34
2023-05-06T22:08:18.219Z,14.30
2023-05-06T22:10:45.699Z,14.13
2023-05-06T22:13:13.154Z,14.12
2023-05-06T22:15:41.682Z,14.15
2023-05-06T22:18:09.333Z,13.99
2023-05-06T22:20:38.699Z,13.97
2023-05-06T22:23:06.293Z,13.86
2023-05-06T22:25:33.853Z,13.89
2023-05-06T22:28:01.350Z,13.93
2023-05-06T22:30:28.879Z,13.86
2023-05-06T22:32:56.429Z,13.99
2023-05-06T22:35:24.264Z,13.87
2023-05-06T22:37:53.118Z,13.89
2023-05-06T22:40:20.792Z,13.72
2023-05-06T22:42:48.237Z,13.71
2023-05-06T22:45:15.821Z,13.75
2023-05-06T22:47:43.326Z,13.70
2023-05-06T22:50:12.090Z,13.62
2023-05-06T22:52:39.591Z,13.64
2023-05-06T22:55:10.148Z,13.59
2023-05-06T22:57:37.864Z,13.63
2023-05-06T23:00:08.107Z,13.63
2023-05-06T23:02:35.888Z,13.53
2023-05-06T23:05:03.925Z,13.22
2023-05-06T23:07:31.400Z,13.44
2023-05-06T23:09:59.654Z,13.33
2023-05-06T23:12:32.443Z,13.43
2023-05-06T23:14:59.948Z,13.49
2023-05-06T23:17:27.721Z,13.56
2023-05-06T23:19:55.292Z,13.51
2023-05-06T23:22:22.748Z,13.39
2023-05-06T23:24:51.264Z,13.21
2023-05-06T23:27:18.775Z,13.38
2023-05-06T23:29:47.573Z,13.35
2023-05-06T23:32:15.077Z,13.44
2023-05-06T23:34:42.507Z,13.43
2023-05-06T23:37:11.675Z,13.41
2023-05-06T23:39:39.136Z,13.44
2023-05-06T23:42:06.780Z,13.55
2023-05-06T23:44:34.274Z,13.55
2023-05-06T23:47:05.707Z,13.48
2023-05-06T23:49:33.250Z,13.50
2023-05-06T23:52:00.798Z,13.58
2023-05-06T23:54:28.373Z,13.34
2023-05-06T23:56:56.125Z,13.43
2023-05-06T23:59:23.682Z,13.45
